ENVR/VRY METAR and TAF weather

Enter ICAO airport designator
Station Type Date Time Source
ENVR METAR 2019/02/23 07:20 UTC NOAA

ENVR 230720Z 21015KT 5000 -SHRA DZ OVC006 06/05 Q1019


Station Type Date Time Source
ENVR Decoded METAR 2019/02/23 07:20 UTC NOAA

Station name not available
Feb 23, 2019 - 02:20 AM EST / 2019.02.23 0720 UTC
Wind: from the SSW (210 degrees) at 17 MPH (15 KT):0
Visibility: 3 mile(s):0
Sky conditions: overcast
Weather: light rain showers; drizzle
Temperature: 42 F (6 C)
Dew Point: 41 F (5 C)
Relative Humidity: 93%
Pressure (altimeter): 30.09 in. Hg (1019 hPa)
ob: ENVR 230720Z 21015KT 5000 -SHRA DZ OVC006 06/05 Q1019
cycle: 7

Station Type Date Time Source
ENVR TAF UTC NOAA

Error!


Example: see airport list